createdAt,value
2022-12-23T00:01:28.682Z,10.32
2022-12-23T00:04:00.736Z,10.17
2022-12-23T00:06:33.007Z,10.36
2022-12-23T00:09:02.809Z,10.13
2022-12-23T00:11:32.392Z,9.37
2022-12-23T00:14:20.690Z,9.07
2022-12-23T00:16:51.385Z,9.79
2022-12-23T00:19:21.134Z,9.48
2022-12-23T00:21:53.235Z,9.84
2022-12-23T00:24:22.757Z,9.97
2022-12-23T00:26:52.303Z,9.75
2022-12-23T00:29:21.857Z,9.47
2022-12-23T00:31:51.470Z,9.24
2022-12-23T00:34:21.016Z,8.99
2022-12-23T00:36:53.114Z,9.34
2022-12-23T00:39:35.207Z,9.36
2022-12-23T00:42:17.330Z,9.35
2022-12-23T00:44:46.884Z,8.86
2022-12-23T00:47:37.699Z,9.80
2022-12-23T00:50:05.361Z,10.32
2022-12-23T00:52:37.532Z,9.60
2022-12-23T00:55:08.144Z,9.26
2022-12-23T00:57:37.665Z,9.51
2022-12-23T01:00:08.484Z,9.41
2022-12-23T01:02:50.782Z,10.09
2022-12-23T01:05:33.075Z,9.88
2022-12-23T01:08:05.961Z,10.01
2022-12-23T01:10:37.874Z,10.16
2022-12-23T01:13:07.900Z,10.10
2022-12-23T01:15:37.466Z,10.16
2022-12-23T01:18:07.325Z,9.63
2022-12-23T01:20:36.941Z,9.81
2022-12-23T01:23:09.338Z,10.09
2022-12-23T01:25:38.912Z,9.48
2022-12-23T01:28:08.480Z,10.02
2022-12-23T01:30:38.064Z,10.31
2022-12-23T01:33:07.669Z,10.33
2022-12-23T01:35:37.240Z,10.13
2022-12-23T01:38:09.829Z,10.22
2022-12-23T01:40:39.988Z,9.99
2022-12-23T01:43:06.997Z,9.83
2022-12-23T01:45:36.670Z,9.83
2022-12-23T01:48:10.087Z,9.87
2022-12-23T01:50:43.445Z,9.86
2022-12-23T01:53:20.227Z,9.87
2022-12-23T01:55:53.778Z,9.95
2022-12-23T01:58:27.232Z,9.87
2022-12-23T02:01:11.196Z,9.93
2022-12-23T02:03:46.575Z,9.87
2022-12-23T02:06:35.143Z,9.88
2022-12-23T02:09:19.678Z,9.91
2022-12-23T02:12:03.635Z,9.85
2022-12-23T02:14:56.785Z,9.81
2022-12-23T02:17:30.308Z,9.92
2022-12-23T02:20:27.827Z,9.98
2022-12-23T02:23:20.752Z,10.00
2022-12-23T02:26:09.070Z,9.92
2022-12-23T02:29:12.109Z,9.74
2022-12-23T02:31:52.137Z,9.90
2022-12-23T02:34:26.566Z,9.94
2022-12-23T02:37:07.480Z,9.92
2022-12-23T02:39:45.099Z,9.84
2022-12-23T02:42:19.665Z,9.90
2022-12-23T02:44:55.270Z,9.90
2022-12-23T02:47:32.707Z,9.99
2022-12-23T02:50:06.621Z,10.01
2022-12-23T02:52:39.872Z,10.19
2022-12-23T02:55:15.628Z,10.19
2022-12-23T02:57:47.541Z,10.10
2022-12-23T03:00:17.837Z,10.04
2022-12-23T03:02:50.725Z,10.10
2022-12-23T03:05:28.836Z,10.01
2022-12-23T03:08:02.796Z,9.93
2022-12-23T03:10:42.787Z,10.16
2022-12-23T03:13:24.365Z,10.21
2022-12-23T03:16:07.132Z,10.18
2022-12-23T03:18:49.497Z,10.16
2022-12-23T03:21:25.745Z,10.00
2022-12-23T03:23:59.639Z,10.11
2022-12-23T03:26:37.262Z,10.39
2022-12-23T03:29:14.458Z,10.33
2022-12-23T03:31:45.767Z,10.08
2022-12-23T03:34:21.309Z,10.17
2022-12-23T03:36:55.104Z,10.42
2022-12-23T03:39:29.771Z,10.49
2022-12-23T03:42:03.452Z,10.26
2022-12-23T03:44:37.439Z,10.35
2022-12-23T03:47:11.861Z,10.34
2022-12-23T03:49:49.558Z,10.26
2022-12-23T03:52:22.366Z,10.21
2022-12-23T03:54:56.125Z,10.45
2022-12-23T03:57:32.055Z,10.12
2022-12-23T04:00:01.690Z,10.01
2022-12-23T04:02:36.802Z,9.90
2022-12-23T04:05:28.187Z,9.87
2022-12-23T04:08:05.103Z,9.92
2022-12-23T04:10:34.877Z,9.89
2022-12-23T04:13:04.456Z,9.93
2022-12-23T04:15:34.355Z,9.99
2022-12-23T04:18:03.894Z,9.93
2022-12-23T04:20:36.380Z,10.00
2022-12-23T04:23:06.241Z,10.01
2022-12-23T04:25:35.878Z,9.98
2022-12-23T04:28:05.431Z,10.09
2022-12-23T04:30:35.177Z,10.12
2022-12-23T04:33:05.171Z,10.19
2022-12-23T04:35:37.282Z,9.97
2022-12-23T04:38:07.304Z,10.02
2022-12-23T04:40:36.874Z,10.16
2022-12-23T04:43:06.496Z,10.09
2022-12-23T04:45:36.032Z,10.09
2022-12-23T04:48:05.650Z,10.11
2022-12-23T04:50:37.820Z,10.04
2022-12-23T04:53:07.327Z,10.18
2022-12-23T04:55:36.859Z,10.24
2022-12-23T04:58:06.400Z,10.25
2022-12-23T05:00:39.884Z,10.27
2022-12-23T05:03:09.906Z,10.23
2022-12-23T05:05:45.804Z,10.20
2022-12-23T05:08:15.492Z,10.17
2022-12-23T05:10:45.042Z,10.26
2022-12-23T05:13:14.624Z,10.25
2022-12-23T05:15:46.539Z,10.16
2022-12-23T05:18:16.073Z,9.95
2022-12-23T05:20:48.524Z,9.93
2022-12-23T05:23:18.429Z,9.88
2022-12-23T05:25:54.015Z,9.95
2022-12-23T05:28:24.238Z,9.94
2022-12-23T05:31:00.624Z,9.98
2022-12-23T05:33:30.398Z,10.11
2022-12-23T05:36:02.591Z,10.11
2022-12-23T05:38:32.662Z,10.09
2022-12-23T05:41:02.373Z,9.95
2022-12-23T05:43:32.008Z,10.02
2022-12-23T05:46:01.763Z,10.06
2022-12-23T05:48:31.452Z,10.01
2022-12-23T05:51:03.593Z,10.08
2022-12-23T05:53:33.466Z,10.18
2022-12-23T05:56:07.102Z,10.01
2022-12-23T05:58:36.783Z,9.96
2022-12-23T06:01:06.849Z,10.00
2022-12-23T06:03:36.591Z,10.02
2022-12-23T06:06:09.279Z,10.03
2022-12-23T06:08:38.961Z,10.12
2022-12-23T06:11:09.103Z,10.11
2022-12-23T06:13:38.715Z,10.12
2022-12-23T06:16:09.325Z,10.21
2022-12-23T06:18:38.906Z,10.06
2022-12-23T06:21:11.249Z,10.00
2022-12-23T06:23:40.858Z,9.93
2022-12-23T06:26:10.381Z,10.09
2022-12-23T06:28:39.951Z,10.33
2022-12-23T06:31:09.514Z,10.25
2022-12-23T06:33:39.122Z,10.36
2022-12-23T06:36:12.327Z,10.24
2022-12-23T06:38:41.873Z,10.47
2022-12-23T06:41:12.051Z,10.61
2022-12-23T06:43:41.613Z,10.66
2022-12-23T06:46:11.201Z,10.66
2022-12-23T06:48:41.186Z,10.28
2022-12-23T06:51:14.659Z,10.51
2022-12-23T06:53:44.265Z,10.57
2022-12-23T06:56:13.869Z,10.58
2022-12-23T06:58:43.435Z,10.44
2022-12-23T07:01:13.029Z,10.46
2022-12-23T07:03:42.683Z,10.21
2022-12-23T07:06:14.871Z,10.15
2022-12-23T07:08:44.480Z,10.37
2022-12-23T07:11:14.070Z,10.31
2022-12-23T07:13:43.696Z,10.32
2022-12-23T07:16:13.352Z,10.34
2022-12-23T07:18:43.065Z,10.11
2022-12-23T07:21:24.574Z,10.10
2022-12-23T07:23:58.117Z,10.12
2022-12-23T07:26:27.785Z,9.88
2022-12-23T07:28:57.797Z,9.80
2022-12-23T07:31:28.350Z,9.91
2022-12-23T07:33:58.068Z,9.73
2022-12-23T07:36:30.245Z,9.74
2022-12-23T07:39:00.589Z,9.84
2022-12-23T07:41:30.311Z,9.65
2022-12-23T07:44:06.091Z,9.56
2022-12-23T07:46:35.942Z,9.63
2022-12-23T07:49:05.608Z,9.47
2022-12-23T07:51:37.852Z,9.52
2022-12-23T07:54:07.549Z,9.52
2022-12-23T07:56:37.161Z,9.31
2022-12-23T07:59:06.977Z,9.37
2022-12-23T08:01:36.615Z,9.37
2022-12-23T08:04:06.394Z,9.28
2022-12-23T08:06:41.444Z,9.33
2022-12-23T08:09:12.478Z,9.38
2022-12-23T08:11:42.387Z,9.23
2022-12-23T08:14:12.246Z,9.18
2022-12-23T08:16:44.151Z,9.00
2022-12-23T08:19:14.123Z,9.10
2022-12-23T08:21:46.362Z,9.20
2022-12-23T08:24:16.068Z,9.03
2022-12-23T08:26:45.914Z,9.07
2022-12-23T08:29:15.654Z,9.12
2022-12-23T08:31:45.380Z,9.04
2022-12-23T08:34:15.060Z,9.07
2022-12-23T08:36:47.268Z,8.97
2022-12-23T08:39:17.642Z,8.94
2022-12-23T08:41:49.109Z,9.03
2022-12-23T08:44:19.445Z,9.01
2022-12-23T08:46:49.194Z,8.93
2022-12-23T08:49:18.971Z,9.17
2022-12-23T08:51:51.928Z,9.29
2022-12-23T08:54:22.292Z,9.30
2022-12-23T08:56:52.514Z,9.07
2022-12-23T08:59:22.143Z,8.84
2022-12-23T09:01:51.754Z,8.95
2022-12-23T09:04:21.375Z,8.89
2022-12-23T09:06:53.588Z,9.00
2022-12-23T09:09:23.128Z,9.15
2022-12-23T09:11:52.700Z,8.91
2022-12-23T09:14:22.214Z,9.03
2022-12-23T09:16:53.301Z,9.03
2022-12-23T09:19:23.139Z,9.55
2022-12-23T09:21:55.323Z,9.39
2022-12-23T09:24:25.384Z,9.48
2022-12-23T09:26:55.115Z,9.13
2022-12-23T09:29:24.830Z,9.28
2022-12-23T09:31:54.677Z,9.10
2022-12-23T09:34:24.369Z,9.26
2022-12-23T09:36:56.485Z,9.49
2022-12-23T09:39:26.124Z,9.24
2022-12-23T09:42:07.490Z,9.15
2022-12-23T09:44:59.611Z,9.19
2022-12-23T09:47:32.423Z,9.17
2022-12-23T09:50:05.607Z,9.37
2022-12-23T09:52:44.499Z,9.45
2022-12-23T09:55:14.839Z,9.30
2022-12-23T09:57:53.727Z,9.30
2022-12-23T10:00:25.332Z,9.31
2022-12-23T10:03:08.668Z,9.17
2022-12-23T10:05:51.193Z,9.10
2022-12-23T10:08:29.819Z,8.79
2022-12-23T10:11:03.969Z,8.65
2022-12-23T10:13:38.214Z,8.84
2022-12-23T10:16:10.734Z,8.71
2022-12-23T10:18:50.867Z,8.47
2022-12-23T10:21:27.933Z,8.66
2022-12-23T10:24:03.169Z,8.94
2022-12-23T10:26:39.598Z,9.09
2022-12-23T10:29:19.241Z,8.86
2022-12-23T10:32:09.705Z,9.00
2022-12-23T10:34:47.443Z,8.93
2022-12-23T10:37:23.570Z,9.10
2022-12-23T10:40:11.317Z,9.10
2022-12-23T10:42:48.753Z,9.09
2022-12-23T10:45:29.946Z,9.29
2022-12-23T10:48:16.789Z,9.26
2022-12-23T10:50:55.974Z,9.45
2022-12-23T10:53:36.726Z,9.83
2022-12-23T10:56:10.995Z,9.59
2022-12-23T10:58:44.770Z,9.76
2022-12-23T11:01:24.137Z,10.14
2022-12-23T11:04:04.877Z,10.04
2022-12-23T11:06:37.878Z,9.73
2022-12-23T11:09:09.410Z,9.98
2022-12-23T11:12:01.427Z,9.55
2022-12-23T11:14:37.118Z,9.50
2022-12-23T11:17:08.337Z,9.93
2022-12-23T11:19:37.932Z,9.72
2022-12-23T11:22:07.437Z,9.75
2022-12-23T11:24:42.974Z,9.52
2022-12-23T11:27:18.762Z,9.80
2022-12-23T11:29:52.100Z,10.02
2022-12-23T11:32:25.367Z,10.23
2022-12-23T11:34:56.793Z,10.18
2022-12-23T11:37:34.413Z,9.54
2022-12-23T11:40:04.589Z,9.83
2022-12-23T11:42:37.352Z,10.28
2022-12-23T11:45:10.758Z,10.00
2022-12-23T11:47:42.315Z,10.40
2022-12-23T11:50:30.492Z,10.22
2022-12-23T11:53:07.198Z,10.21
2022-12-23T11:55:37.265Z,9.94
2022-12-23T11:58:19.692Z,9.87
2022-12-23T12:00:56.018Z,9.87
2022-12-23T12:03:30.188Z,9.27
2022-12-23T12:06:02.721Z,9.62
2022-12-23T12:08:35.724Z,9.90
2022-12-23T12:11:09.185Z,9.70
2022-12-23T12:13:44.452Z,10.35
2022-12-23T12:16:26.580Z,10.08
2022-12-23T12:18:58.973Z,9.77
2022-12-23T12:21:33.150Z,10.08
2022-12-23T12:24:18.313Z,9.29
2022-12-23T12:26:52.680Z,9.86
2022-12-23T12:29:30.151Z,9.68
2022-12-23T12:32:02.053Z,9.06
2022-12-23T12:34:44.766Z,9.29
2022-12-23T12:37:25.304Z,9.53
2022-12-23T12:39:59.385Z,9.74
2022-12-23T12:42:36.338Z,9.34
2022-12-23T12:45:18.133Z,9.32
2022-12-23T12:47:58.387Z,9.55
2022-12-23T12:50:35.834Z,9.40
2022-12-23T12:53:14.785Z,8.89
2022-12-23T12:55:50.827Z,9.21
2022-12-23T12:58:22.912Z,9.60
2022-12-23T13:01:08.210Z,9.63
2022-12-23T13:04:03.516Z,9.24
2022-12-23T13:06:43.777Z,9.50
2022-12-23T13:09:21.696Z,9.40
2022-12-23T13:11:58.594Z,10.33
2022-12-23T13:14:37.151Z,9.79
2022-12-23T13:17:15.938Z,10.21
2022-12-23T13:19:54.175Z,9.50
2022-12-23T13:22:30.597Z,9.88
2022-12-23T13:25:08.305Z,9.91
2022-12-23T13:27:41.679Z,10.06
2022-12-23T13:30:17.832Z,10.05
2022-12-23T13:33:05.292Z,9.49
2022-12-23T13:35:51.406Z,9.28
2022-12-23T13:38:34.716Z,9.14
2022-12-23T13:41:13.719Z,9.47
2022-12-23T13:43:48.507Z,9.25
2022-12-23T13:46:26.117Z,9.17
2022-12-23T13:49:05.378Z,9.18
2022-12-23T13:51:42.437Z,9.22
2022-12-23T13:54:24.552Z,9.39
2022-12-23T13:57:01.427Z,9.64
2022-12-23T13:59:41.903Z,9.52
2022-12-23T14:02:42.653Z,9.32
2022-12-23T14:05:35.101Z,8.94
2022-12-23T14:08:08.770Z,9.34
2022-12-23T14:10:39.527Z,9.27
2022-12-23T14:13:11.201Z,9.07
2022-12-23T14:16:12.506Z,8.82
2022-12-23T14:19:07.958Z,8.49
2022-12-23T14:21:49.875Z,8.55
2022-12-23T14:24:48.626Z,8.88
2022-12-23T14:27:38.232Z,8.36
2022-12-23T14:30:16.749Z,8.18
2022-12-23T14:32:50.895Z,7.98
2022-12-23T14:35:29.593Z,8.38
2022-12-23T14:38:28.337Z,8.41
2022-12-23T14:41:02.432Z,8.19
2022-12-23T14:43:55.750Z,8.65
2022-12-23T14:46:58.530Z,8.29
2022-12-23T14:49:46.187Z,8.54
2022-12-23T14:52:44.869Z,8.56
2022-12-23T14:55:45.624Z,8.38
2022-12-23T14:58:52.812Z,8.03
2022-12-23T15:01:25.805Z,8.07
2022-12-23T15:04:01.285Z,7.73
2022-12-23T15:06:37.841Z,7.61
2022-12-23T15:09:08.768Z,7.86
2022-12-23T15:11:43.224Z,8.34
2022-12-23T15:14:22.178Z,8.42
2022-12-23T15:16:51.799Z,7.74
2022-12-23T15:19:24.187Z,7.66
2022-12-23T15:22:05.344Z,7.57
2022-12-23T15:24:42.759Z,7.55
2022-12-23T15:27:28.692Z,7.90
2022-12-23T15:30:00.049Z,8.18
2022-12-23T15:32:31.716Z,8.18
2022-12-23T15:35:06.930Z,8.55
2022-12-23T15:37:37.274Z,8.03
2022-12-23T15:40:13.386Z,7.85
2022-12-23T15:42:49.684Z,8.08
2022-12-23T15:45:36.550Z,7.95
2022-12-23T15:48:08.057Z,7.72
2022-12-23T15:50:42.665Z,7.54
2022-12-23T15:53:13.311Z,7.54
2022-12-23T15:55:43.769Z,7.85
2022-12-23T15:58:23.144Z,7.49
2022-12-23T16:00:55.340Z,7.55
2022-12-23T16:03:32.541Z,7.92
2022-12-23T16:06:11.092Z,7.78
2022-12-23T16:08:40.982Z,7.93
2022-12-23T16:11:17.213Z,8.10
2022-12-23T16:14:01.347Z,8.26
2022-12-23T16:16:37.055Z,8.37
2022-12-23T16:19:06.510Z,8.23
2022-12-23T16:21:38.684Z,7.94
2022-12-23T16:24:11.511Z,7.97
2022-12-23T16:26:43.785Z,8.04
2022-12-23T16:29:17.489Z,8.06
2022-12-23T16:31:53.229Z,8.19
2022-12-23T16:34:27.061Z,7.92
2022-12-23T16:36:56.619Z,8.26
2022-12-23T16:39:26.221Z,8.25
2022-12-23T16:41:55.937Z,8.18
2022-12-23T16:44:28.118Z,7.88
2022-12-23T16:46:57.668Z,7.87
2022-12-23T16:49:36.421Z,7.74
2022-12-23T16:52:09.667Z,7.45
2022-12-23T16:54:39.203Z,7.79
2022-12-23T16:57:08.776Z,7.42
2022-12-23T16:59:41.298Z,7.45
2022-12-23T17:02:21.304Z,7.62
2022-12-23T17:04:51.319Z,7.59
2022-12-23T17:07:20.881Z,7.38
2022-12-23T17:09:50.435Z,7.21
2022-12-23T17:12:20.335Z,7.11
2022-12-23T17:14:52.475Z,7.17
2022-12-23T17:17:25.774Z,7.11
2022-12-23T17:19:56.373Z,7.19
2022-12-23T17:22:27.272Z,7.29
2022-12-23T17:24:56.906Z,7.09
2022-12-23T17:27:26.507Z,7.23
2022-12-23T17:29:58.735Z,7.12
2022-12-23T17:32:28.477Z,7.11
2022-12-23T17:34:58.139Z,7.19
2022-12-23T17:37:27.722Z,7.19
2022-12-23T17:39:57.445Z,7.41
2022-12-23T17:42:27.190Z,7.35
2022-12-23T17:44:59.312Z,7.31
2022-12-23T17:47:28.859Z,7.31
2022-12-23T17:49:58.477Z,7.27
2022-12-23T17:52:28.701Z,7.15
2022-12-23T17:54:58.367Z,7.31
2022-12-23T17:57:29.309Z,7.32
2022-12-23T18:00:01.499Z,7.25
2022-12-23T18:02:42.091Z,7.28
2022-12-23T18:05:23.143Z,7.25
2022-12-23T18:07:54.650Z,7.21
2022-12-23T18:10:26.663Z,7.08
2022-12-23T18:13:00.132Z,7.16
2022-12-23T18:15:37.127Z,7.07
2022-12-23T18:18:20.333Z,7.12
2022-12-23T18:20:56.659Z,7.11
2022-12-23T18:23:28.417Z,7.00
2022-12-23T18:25:59.309Z,7.08
2022-12-23T18:28:29.616Z,7.22
2022-12-23T18:31:01.949Z,7.20
2022-12-23T18:33:31.732Z,7.06
2022-12-23T18:36:01.378Z,6.92
2022-12-23T18:38:30.992Z,7.07
2022-12-23T18:41:00.545Z,7.11
2022-12-23T18:43:30.344Z,7.39
2022-12-23T18:46:02.850Z,7.52
2022-12-23T18:48:32.538Z,7.58
2022-12-23T18:51:02.161Z,7.56
2022-12-23T18:53:31.784Z,7.52
2022-12-23T18:56:01.349Z,7.63
2022-12-23T18:58:30.924Z,7.54
2022-12-23T19:01:03.127Z,7.64
2022-12-23T19:03:34.241Z,7.74
2022-12-23T19:06:09.380Z,7.65
2022-12-23T19:08:40.072Z,7.45
2022-12-23T19:11:14.184Z,7.36
2022-12-23T19:13:44.604Z,7.21
2022-12-23T19:16:18.626Z,7.33
2022-12-23T19:18:49.593Z,7.47
2022-12-23T19:21:20.751Z,7.57
2022-12-23T19:23:50.295Z,7.75
2022-12-23T19:26:19.928Z,7.82
2022-12-23T19:28:50.351Z,7.00
2022-12-23T19:31:23.307Z,6.83
2022-12-23T19:33:55.545Z,7.02
2022-12-23T19:36:25.479Z,7.12
2022-12-23T19:38:55.148Z,7.44
2022-12-23T19:41:24.741Z,7.60
2022-12-23T19:43:54.327Z,7.37
2022-12-23T19:46:26.523Z,7.04
2022-12-23T19:48:56.212Z,7.08
2022-12-23T19:51:25.950Z,7.15
2022-12-23T19:53:55.486Z,7.48
2022-12-23T19:56:26.068Z,7.42
2022-12-23T19:58:55.775Z,7.37
2022-12-23T20:01:29.298Z,7.38
2022-12-23T20:03:59.506Z,7.45
2022-12-23T20:06:31.128Z,7.31
2022-12-23T20:09:04.252Z,7.33
2022-12-23T20:11:36.264Z,7.78
2022-12-23T20:14:06.047Z,7.57
2022-12-23T20:16:38.943Z,7.72
2022-12-23T20:19:09.515Z,7.61
2022-12-23T20:21:40.037Z,7.53
2022-12-23T20:24:10.563Z,7.27
2022-12-23T20:26:40.370Z,7.29
2022-12-23T20:29:10.875Z,7.83
2022-12-23T20:31:43.206Z,7.85
2022-12-23T20:34:17.214Z,7.52
2022-12-23T20:36:46.856Z,7.15
2022-12-23T20:39:16.838Z,7.62
2022-12-23T20:41:46.455Z,8.05
2022-12-23T20:47:09.359Z,7.56
2022-12-23T20:49:38.932Z,7.53
2022-12-23T20:52:08.508Z,7.86
2022-12-23T20:54:38.148Z,8.07
2022-12-23T20:57:07.778Z,8.39
2022-12-23T20:59:37.435Z,8.56
2022-12-23T21:02:09.619Z,8.52
2022-12-23T21:04:39.225Z,8.49
2022-12-23T21:07:08.911Z,8.54
2022-12-23T21:09:38.495Z,8.34
2022-12-23T21:12:08.535Z,8.20
2022-12-23T21:14:38.130Z,8.17
2022-12-23T21:17:10.299Z,8.07
2022-12-23T21:19:39.963Z,8.61
2022-12-23T21:22:09.564Z,8.60
2022-12-23T21:24:39.140Z,8.81
2022-12-23T21:27:08.739Z,8.89
2022-12-23T21:29:38.282Z,9.48
2022-12-23T21:32:10.496Z,8.88
2022-12-23T21:34:40.052Z,8.91
2022-12-23T21:37:09.598Z,9.19
2022-12-23T21:39:39.135Z,9.17
2022-12-23T21:42:09.090Z,9.55
2022-12-23T21:44:38.640Z,9.18
2022-12-23T21:47:10.777Z,9.36
2022-12-23T21:49:42.308Z,9.35
2022-12-23T21:52:12.138Z,9.86
2022-12-23T21:54:41.701Z,9.75
2022-12-23T21:57:11.266Z,9.55
2022-12-23T21:59:40.828Z,9.41
2022-12-23T22:02:17.509Z,9.62
2022-12-23T22:04:47.292Z,10.09
2022-12-23T22:07:16.850Z,9.81
2022-12-23T22:09:46.401Z,10.20
2022-12-23T22:12:15.923Z,9.98
2022-12-23T22:14:45.491Z,9.56
2022-12-23T22:17:17.591Z,9.59
2022-12-23T22:19:47.109Z,9.45
2022-12-23T22:22:16.636Z,9.31
2022-12-23T22:24:46.154Z,9.12
2022-12-23T22:27:15.720Z,9.27
2022-12-23T22:29:45.320Z,9.23
2022-12-23T22:32:17.421Z,9.04
2022-12-23T22:34:47.013Z,8.90
2022-12-23T22:37:16.583Z,9.02
2022-12-23T22:39:46.636Z,9.05
2022-12-23T22:42:16.200Z,9.13
2022-12-23T22:44:45.727Z,9.33
2022-12-23T22:47:18.139Z,9.26
2022-12-23T22:49:47.829Z,9.12
2022-12-23T22:52:18.255Z,9.39
2022-12-23T22:54:47.892Z,9.70
2022-12-23T22:57:17.494Z,9.91
2022-12-23T22:59:47.532Z,10.03
2022-12-23T23:02:19.750Z,10.08
2022-12-23T23:04:49.380Z,10.07
2022-12-23T23:07:18.964Z,10.01
2022-12-23T23:09:48.573Z,10.08
2022-12-23T23:12:18.162Z,9.91
2022-12-23T23:14:56.546Z,9.93
2022-12-23T23:17:31.408Z,9.93
2022-12-23T23:20:01.061Z,9.74
2022-12-23T23:22:30.750Z,9.81
2022-12-23T23:25:00.288Z,9.88
2022-12-23T23:27:29.888Z,9.89
2022-12-23T23:29:59.601Z,9.81
2022-12-23T23:32:31.860Z,9.75
2022-12-23T23:35:08.678Z,9.83
2022-12-23T23:37:40.062Z,9.70
2022-12-23T23:40:11.944Z,9.65
2022-12-23T23:42:41.582Z,9.59
2022-12-23T23:45:12.159Z,9.60
2022-12-23T23:47:44.323Z,9.73
2022-12-23T23:50:14.139Z,9.77
2022-12-23T23:52:43.964Z,9.59
2022-12-23T23:55:13.842Z,9.57
2022-12-23T23:57:43.527Z,9.57
